Al Hillah, Iraq
Current Conditions -  °F | °C
As of 1:00 PM on Friday 24 Oct 2014 (Local Time) from ORNI Reporting Station
Clear Clear  
Wind Chill: 86°   Ceiling: Unl
Heat Index: 86°   Visibility: 5mi
Dew Point: 46°   Wind: 0mph
Humidity: 25%   Direction: NA
Pressure: 29.97"   Gusts: NA
Location:  32.48°N, 44.46°E
Report Text: ORNI 241000Z 00000KT 8000 NSC 30/08 Q1015 NOSIG
Loading
Personal Weather Stations






























Interactive Weather Map New forecast layout! Learn more

10-Day Weather Forecast

Advertisements
Track Severe Weather on mobile